createdAt,value
2023-02-12T00:01:29.071Z,12.03
2023-02-12T00:03:57.511Z,12.63
2023-02-12T00:06:26.494Z,12.20
2023-02-12T00:08:57.361Z,11.57
2023-02-12T00:11:27.916Z,11.37
2023-02-12T00:13:58.755Z,12.43
2023-02-12T00:16:28.934Z,11.67
2023-02-12T00:18:59.045Z,12.20
2023-02-12T00:21:27.677Z,11.67
2023-02-12T00:23:56.594Z,12.10
2023-02-12T00:26:25.170Z,13.63
2023-02-12T00:28:54.068Z,12.50
2023-02-12T00:31:26.611Z,12.67
2023-02-12T00:33:55.384Z,13.90
2023-02-12T00:36:25.422Z,12.53
2023-02-12T00:38:54.524Z,12.43
2023-02-12T00:41:23.442Z,12.97
2023-02-12T00:43:52.033Z,13.17
2023-02-12T00:46:20.872Z,12.00
2023-02-12T00:48:50.819Z,13.63
2023-02-12T00:51:18.803Z,14.07
2023-02-12T00:53:47.316Z,12.50
2023-02-12T00:56:15.713Z,11.63
2023-02-12T00:58:43.902Z,14.10
2023-02-12T01:01:12.502Z,14.00
2023-02-12T01:03:40.889Z,16.93
2023-02-12T01:06:10.597Z,12.90
2023-02-12T01:08:39.044Z,13.60
2023-02-12T01:11:07.947Z,13.27
2023-02-12T01:13:36.501Z,13.30
2023-02-12T01:16:12.872Z,13.63
2023-02-12T01:18:41.533Z,14.83
2023-02-12T01:21:16.849Z,13.73
2023-02-12T01:23:45.842Z,13.50
2023-02-12T01:26:14.924Z,15.33
2023-02-12T01:28:45.484Z,15.43
2023-02-12T01:31:15.657Z,15.00
2023-02-12T01:33:44.506Z,15.60
2023-02-12T01:36:14.099Z,15.67
2023-02-12T01:38:42.448Z,15.47
2023-02-12T01:41:13.832Z,15.90
2023-02-12T01:43:42.493Z,16.30
2023-02-12T01:46:14.701Z,14.93
2023-02-12T01:48:46.897Z,13.20
2023-02-12T01:51:21.282Z,14.20
2023-02-12T01:53:53.840Z,15.10
2023-02-12T01:56:23.836Z,14.00
2023-02-12T01:58:55.741Z,15.03
2023-02-12T02:01:29.473Z,15.00
2023-02-12T02:04:01.430Z,15.77
2023-02-12T02:06:35.460Z,14.73
2023-02-12T02:09:04.489Z,15.33
2023-02-12T02:11:50.302Z,14.57
2023-02-12T02:14:33.779Z,15.63
2023-02-12T02:17:21.662Z,15.57
2023-02-12T02:20:18.050Z,15.80
2023-02-12T02:22:56.327Z,15.30
2023-02-12T02:26:02.194Z,14.90
2023-02-12T02:28:59.440Z,16.27
2023-02-12T02:31:38.103Z,13.67
2023-02-12T02:34:13.564Z,14.57
2023-02-12T02:36:59.719Z,14.47
2023-02-12T02:39:35.226Z,15.43
2023-02-12T02:42:09.273Z,15.43
2023-02-12T02:44:43.540Z,15.70
2023-02-12T02:47:15.914Z,15.67
2023-02-12T02:49:47.734Z,14.63
2023-02-12T02:52:20.010Z,15.93
2023-02-12T02:54:52.368Z,16.67
2023-02-12T02:57:26.313Z,16.10
2023-02-12T02:59:59.620Z,15.77
2023-02-12T03:02:33.611Z,14.67
2023-02-12T03:05:06.100Z,14.50
2023-02-12T03:07:37.533Z,16.13
2023-02-12T03:10:11.938Z,16.57
2023-02-12T03:12:44.549Z,16.53
2023-02-12T03:15:18.661Z,15.97
2023-02-12T03:17:50.635Z,15.73
2023-02-12T03:20:22.348Z,14.47
2023-02-12T03:22:55.327Z,14.40
2023-02-12T03:25:27.807Z,13.97
2023-02-12T03:28:03.110Z,15.60
2023-02-12T03:30:40.149Z,14.50
2023-02-12T03:33:21.917Z,13.70
2023-02-12T03:35:58.475Z,12.07
2023-02-12T03:38:37.731Z,11.47
2023-02-12T03:41:10.917Z,10.87
2023-02-12T03:43:50.631Z,9.77
2023-02-12T03:46:24.412Z,9.90
2023-02-12T03:49:02.781Z,9.93
2023-02-12T03:51:36.279Z,9.43
2023-02-12T03:54:06.314Z,9.10
2023-02-12T03:56:42.850Z,10.10
2023-02-12T03:59:11.602Z,9.63
2023-02-12T04:01:39.989Z,8.87
2023-02-12T04:04:10.919Z,7.53
2023-02-12T04:06:39.636Z,8.57
2023-02-12T04:09:10.703Z,8.27
2023-02-12T04:11:51.141Z,7.77
2023-02-12T04:14:30.654Z,8.40
2023-02-12T04:17:04.693Z,8.10
2023-02-12T04:19:44.569Z,8.30
2023-02-12T04:22:34.303Z,8.10
2023-02-12T04:25:14.994Z,7.97
2023-02-12T04:27:54.075Z,8.13
2023-02-12T04:30:25.660Z,9.20
2023-02-12T04:32:58.448Z,7.50
2023-02-12T04:35:33.560Z,6.97
2023-02-12T04:38:09.897Z,7.43
2023-02-12T04:40:40.920Z,6.47
2023-02-12T04:43:09.184Z,6.87
2023-02-12T04:45:38.791Z,5.93
2023-02-12T04:48:07.822Z,6.27
2023-02-12T04:50:42.907Z,7.00
2023-02-12T04:53:12.017Z,7.70
2023-02-12T04:55:40.652Z,7.53
2023-02-12T04:58:08.876Z,7.60
2023-02-12T05:00:37.307Z,7.37
2023-02-12T05:03:05.798Z,7.67
2023-02-12T05:05:34.598Z,7.10
2023-02-12T05:08:04.440Z,7.00
2023-02-12T05:10:32.796Z,7.53
2023-02-12T05:13:01.161Z,8.30
2023-02-12T05:15:29.539Z,6.47
2023-02-12T05:17:57.703Z,7.00
2023-02-12T05:20:25.898Z,6.43
2023-02-12T05:22:54.717Z,6.67
2023-02-12T05:25:24.376Z,5.67
2023-02-12T05:27:52.979Z,6.27
2023-02-12T05:30:21.275Z,5.53
2023-02-12T05:32:49.700Z,6.00
2023-02-12T05:35:17.958Z,4.77
2023-02-12T05:37:46.284Z,5.37
2023-02-12T05:40:15.562Z,5.70
2023-02-12T05:42:45.246Z,5.73
2023-02-12T05:45:13.783Z,4.53
2023-02-12T05:47:43.458Z,5.50
2023-02-12T05:50:12.305Z,4.93
2023-02-12T05:52:40.616Z,5.27
2023-02-12T05:55:09.609Z,5.23
2023-02-12T05:57:37.710Z,5.83
2023-02-12T06:00:10.524Z,5.23
2023-02-12T06:02:38.770Z,5.70
2023-02-12T06:05:07.642Z,6.47
2023-02-12T06:07:35.869Z,6.63
2023-02-12T06:10:04.262Z,6.17
2023-02-12T06:12:32.661Z,6.47
2023-02-12T06:15:00.922Z,5.97
2023-02-12T06:17:30.355Z,6.30
2023-02-12T06:19:58.593Z,6.00
2023-02-12T06:22:27.064Z,6.60
2023-02-12T06:24:55.188Z,6.53
2023-02-12T06:27:23.406Z,6.10
2023-02-12T06:29:51.595Z,5.63
2023-02-12T06:32:20.006Z,6.67
2023-02-12T06:34:50.188Z,5.93
2023-02-12T06:37:18.754Z,6.30
2023-02-12T06:39:47.416Z,5.50
2023-02-12T06:42:15.524Z,6.23
2023-02-12T06:44:43.881Z,5.80
2023-02-12T06:47:11.901Z,6.10
2023-02-12T06:49:40.165Z,5.50
2023-02-12T06:52:09.670Z,6.47
2023-02-12T06:54:37.983Z,6.40
2023-02-12T06:57:06.183Z,6.03
2023-02-12T06:59:34.411Z,5.60
2023-02-12T07:02:02.559Z,5.87
2023-02-12T07:04:30.827Z,5.90
2023-02-12T07:06:59.129Z,6.17
2023-02-12T07:09:28.796Z,5.83
2023-02-12T07:12:01.081Z,6.53
2023-02-12T07:14:29.278Z,5.93
2023-02-12T07:16:57.576Z,5.67
2023-02-12T07:19:25.973Z,5.83
2023-02-12T07:21:54.147Z,5.47
2023-02-12T07:24:22.280Z,6.17
2023-02-12T07:26:52.089Z,6.13
2023-02-12T07:29:20.362Z,5.80
2023-02-12T07:31:48.724Z,6.50
2023-02-12T07:34:16.910Z,6.00
2023-02-12T07:36:45.090Z,6.33
2023-02-12T07:39:13.902Z,5.97
2023-02-12T07:41:42.533Z,5.93
2023-02-12T07:44:13.626Z,6.53
2023-02-12T07:46:45.677Z,5.80
2023-02-12T07:49:18.374Z,5.77
2023-02-12T07:51:46.902Z,5.80
2023-02-12T07:54:15.880Z,6.10
2023-02-12T07:56:47.103Z,6.60
2023-02-12T07:59:18.879Z,5.80
2023-02-12T08:01:49.085Z,6.50
2023-02-12T08:04:19.025Z,6.37
2023-02-12T08:06:48.881Z,5.97
2023-02-12T08:09:19.963Z,6.63
2023-02-12T08:11:49.047Z,6.07
2023-02-12T08:14:21.492Z,6.50
2023-02-12T08:16:53.427Z,5.60
2023-02-12T08:19:26.443Z,5.77
2023-02-12T08:21:57.408Z,5.90
2023-02-12T08:24:26.285Z,5.97
2023-02-12T08:26:55.001Z,6.70
2023-02-12T08:29:27.197Z,5.87
2023-02-12T08:31:58.282Z,6.53
2023-02-12T08:34:28.901Z,5.63
2023-02-12T08:36:58.809Z,6.00
2023-02-12T08:39:38.928Z,6.17
2023-02-12T08:42:08.063Z,5.47
2023-02-12T08:44:41.294Z,5.63
2023-02-12T08:47:17.863Z,5.87
2023-02-12T08:49:47.485Z,5.33
2023-02-12T08:52:25.933Z,5.67
2023-02-12T08:54:54.459Z,4.90
2023-02-12T08:57:22.528Z,5.10
2023-02-12T08:59:52.162Z,5.30
2023-02-12T09:02:20.840Z,4.83
2023-02-12T09:04:52.007Z,5.47
2023-02-12T09:07:20.839Z,5.43
2023-02-12T09:09:49.265Z,4.50
2023-02-12T09:12:21.320Z,5.03
2023-02-12T09:14:52.035Z,5.77
2023-02-12T09:17:27.478Z,5.17
2023-02-12T09:19:57.910Z,5.10
2023-02-12T09:22:27.234Z,5.23
2023-02-12T09:24:59.878Z,5.23
2023-02-12T09:27:33.534Z,5.03
2023-02-12T09:30:03.796Z,6.03
2023-02-12T09:32:32.454Z,5.27
2023-02-12T09:35:01.283Z,4.90
2023-02-12T09:37:29.810Z,4.97
2023-02-12T09:39:58.002Z,5.50
2023-02-12T09:42:40.045Z,4.97
2023-02-12T09:45:17.504Z,5.07
2023-02-12T09:47:52.566Z,5.03
2023-02-12T09:50:37.523Z,4.00
2023-02-12T09:53:07.723Z,4.03
2023-02-12T09:55:36.938Z,4.23
2023-02-12T09:58:15.275Z,4.20
2023-02-12T10:00:45.283Z,4.70
2023-02-12T10:03:16.662Z,5.20
2023-02-12T10:05:49.507Z,4.20
2023-02-12T10:08:42.517Z,4.27
2023-02-12T10:11:34.525Z,4.57
2023-02-12T10:14:18.970Z,4.80
2023-02-12T10:17:01.202Z,4.70
2023-02-12T10:19:51.916Z,4.40
2023-02-12T10:22:30.679Z,4.50
2023-02-12T10:25:07.714Z,4.17
2023-02-12T10:27:41.034Z,3.90
2023-02-12T10:30:21.096Z,3.83
2023-02-12T10:32:54.686Z,4.43
2023-02-12T10:35:25.150Z,3.67
2023-02-12T10:37:59.202Z,4.27
2023-02-12T10:40:32.888Z,3.93
2023-02-12T10:43:03.201Z,3.63
2023-02-12T10:45:34.333Z,3.63
2023-02-12T10:48:12.025Z,3.97
2023-02-12T10:51:04.755Z,4.43
2023-02-12T10:53:35.385Z,4.10
2023-02-12T10:56:19.027Z,3.60
2023-02-12T10:58:56.440Z,3.70
2023-02-12T11:01:28.576Z,3.70
2023-02-12T11:03:59.828Z,3.27
2023-02-12T11:06:29.686Z,3.30
2023-02-12T11:08:59.008Z,3.57
2023-02-12T11:11:31.522Z,3.40
2023-02-12T11:14:04.359Z,3.23
2023-02-12T11:16:38.410Z,2.77
2023-02-12T11:19:10.470Z,3.90
2023-02-12T11:21:39.664Z,3.47
2023-02-12T11:24:39.489Z,3.47
2023-02-12T11:27:23.348Z,3.30
2023-02-12T11:30:13.730Z,2.70
2023-02-12T11:32:43.616Z,2.80
2023-02-12T11:35:23.888Z,3.10
2023-02-12T11:37:57.769Z,2.93
2023-02-12T11:40:28.752Z,2.93
2023-02-12T11:42:59.788Z,3.00
2023-02-12T11:45:33.225Z,2.40
2023-02-12T11:48:02.575Z,3.13
2023-02-12T11:50:34.503Z,2.73
2023-02-12T11:53:09.642Z,2.40
2023-02-12T11:55:40.961Z,3.10
2023-02-12T11:58:17.702Z,2.73
2023-02-12T12:00:52.201Z,3.10
2023-02-12T12:03:27.200Z,3.30
2023-02-12T12:06:07.138Z,3.90
2023-02-12T12:08:41.999Z,3.00
2023-02-12T12:11:15.765Z,2.80
2023-02-12T12:13:50.033Z,3.23
2023-02-12T12:16:43.601Z,3.47
2023-02-12T12:19:35.206Z,2.97
2023-02-12T12:22:19.174Z,2.90
2023-02-12T12:24:57.805Z,3.47
2023-02-12T12:27:50.666Z,3.40
2023-02-12T12:30:24.573Z,3.43
2023-02-12T12:32:55.934Z,3.00
2023-02-12T12:35:33.118Z,3.37
2023-02-12T12:38:11.325Z,3.10
2023-02-12T12:40:56.473Z,3.23
2023-02-12T12:43:35.405Z,3.30
2023-02-12T12:46:19.073Z,2.97
2023-02-12T12:49:05.837Z,3.23
2023-02-12T12:51:51.002Z,3.03
2023-02-12T12:54:37.194Z,3.10
2023-02-12T12:57:17.484Z,2.70
2023-02-12T13:00:01.211Z,3.37
2023-02-12T13:03:05.472Z,3.40
2023-02-12T13:05:55.926Z,2.87
2023-02-12T13:09:06.742Z,3.63
2023-02-12T13:11:45.575Z,2.97
2023-02-12T13:14:29.001Z,2.87
2023-02-12T13:17:04.085Z,3.30
2023-02-12T13:19:46.672Z,2.43
2023-02-12T13:22:21.349Z,3.67
2023-02-12T13:24:54.669Z,3.70
2023-02-12T13:27:33.322Z,3.03
2023-02-12T13:30:07.683Z,3.17
2023-02-12T13:32:40.730Z,3.20
2023-02-12T13:35:18.970Z,3.20
2023-02-12T13:37:50.306Z,3.47
2023-02-12T13:40:20.504Z,3.43
2023-02-12T13:42:57.530Z,3.00
2023-02-12T13:45:39.819Z,3.23
2023-02-12T13:48:29.300Z,3.20
2023-02-12T13:51:09.055Z,2.60
2023-02-12T13:54:03.576Z,3.03
2023-02-12T13:56:50.815Z,3.40
2023-02-12T13:59:56.894Z,2.70
2023-02-12T14:02:47.755Z,3.03
2023-02-12T14:05:31.424Z,3.00
2023-02-12T14:08:04.187Z,3.00
2023-02-12T14:10:35.484Z,3.17
2023-02-12T14:13:23.100Z,3.07
2023-02-12T14:15:55.600Z,3.17
2023-02-12T14:18:33.764Z,2.87
2023-02-12T14:21:43.835Z,2.87
2023-02-12T14:24:53.247Z,3.73
2023-02-12T14:27:44.347Z,3.00
2023-02-12T14:30:30.622Z,3.17
2023-02-12T14:33:25.783Z,2.80
2023-02-12T14:36:17.595Z,3.40
2023-02-12T14:39:04.303Z,3.03
2023-02-12T14:41:38.081Z,2.93
2023-02-12T14:44:46.059Z,3.03
2023-02-12T14:47:56.319Z,3.47
2023-02-12T14:50:37.318Z,2.60
2023-02-12T14:53:23.317Z,3.53
2023-02-12T14:55:53.341Z,3.40
2023-02-12T14:58:24.601Z,3.57
2023-02-12T15:00:56.190Z,3.20
2023-02-12T15:03:30.381Z,3.10
2023-02-12T15:06:09.168Z,4.10
2023-02-12T15:08:47.031Z,3.60
2023-02-12T15:11:23.564Z,3.80
2023-02-12T15:13:57.017Z,3.87
2023-02-12T15:16:37.053Z,4.30
2023-02-12T15:19:19.847Z,3.93
2023-02-12T15:21:50.125Z,4.47
2023-02-12T15:24:24.101Z,4.17
2023-02-12T15:26:56.823Z,3.87
2023-02-12T15:29:29.269Z,3.73
2023-02-12T15:31:59.790Z,4.87
2023-02-12T15:34:31.793Z,4.30
2023-02-12T15:37:02.719Z,3.97
2023-02-12T15:39:40.873Z,3.93
2023-02-12T15:42:28.708Z,4.77
2023-02-12T15:45:07.642Z,5.00
2023-02-12T15:47:35.766Z,4.87
2023-02-12T15:50:04.177Z,5.67
2023-02-12T15:52:41.493Z,4.70
2023-02-12T15:55:22.775Z,4.97
2023-02-12T15:57:52.632Z,5.03
2023-02-12T16:00:32.592Z,4.97
2023-02-12T16:03:08.297Z,4.80
2023-02-12T16:05:37.131Z,4.47
2023-02-12T16:08:07.035Z,4.30
2023-02-12T16:10:36.171Z,4.77
2023-02-12T16:13:06.234Z,4.63
2023-02-12T16:15:35.630Z,5.03
2023-02-12T16:18:07.310Z,5.43
2023-02-12T16:20:37.739Z,5.00
2023-02-12T16:23:09.679Z,4.23
2023-02-12T16:25:39.135Z,4.90
2023-02-12T16:28:09.303Z,5.90
2023-02-12T16:30:39.226Z,4.87
2023-02-12T16:33:34.480Z,4.33
2023-02-12T16:36:04.178Z,5.03
2023-02-12T16:38:45.796Z,5.27
2023-02-12T16:41:27.518Z,4.97
2023-02-12T16:44:29.556Z,6.07
2023-02-12T16:47:01.445Z,4.53
2023-02-12T16:49:29.795Z,5.00
2023-02-12T16:52:30.665Z,4.67
2023-02-12T16:55:01.264Z,4.50
2023-02-12T16:57:31.241Z,4.53
2023-02-12T16:59:59.525Z,4.73
2023-02-12T17:02:27.707Z,5.27
2023-02-12T17:05:01.144Z,4.73
2023-02-12T17:07:31.176Z,4.67
2023-02-12T17:10:01.151Z,4.97
2023-02-12T17:12:29.835Z,4.97
2023-02-12T17:14:58.401Z,5.07
2023-02-12T17:17:27.941Z,4.80
2023-02-12T17:19:56.320Z,5.07
2023-02-12T17:22:27.188Z,5.20
2023-02-12T17:24:55.751Z,4.83
2023-02-12T17:27:25.426Z,4.73
2023-02-12T17:29:53.549Z,4.97
2023-02-12T17:32:24.502Z,3.87
2023-02-12T17:34:53.766Z,5.53
2023-02-12T17:37:22.407Z,4.93
2023-02-12T17:39:50.624Z,5.33
2023-02-12T17:42:19.247Z,5.60
2023-02-12T17:44:48.994Z,4.90
2023-02-12T17:47:17.541Z,4.50
2023-02-12T17:49:46.009Z,5.10
2023-02-12T17:52:14.316Z,5.70
2023-02-12T17:54:45.815Z,5.30
2023-02-12T17:57:15.160Z,5.20
2023-02-12T17:59:43.636Z,4.50
2023-02-12T18:02:13.790Z,4.70
2023-02-12T18:04:42.081Z,4.83
2023-02-12T18:07:10.383Z,5.20
2023-02-12T18:09:38.868Z,5.03
2023-02-12T18:12:07.796Z,5.00
2023-02-12T18:14:36.152Z,5.17
2023-02-12T18:17:04.391Z,4.80
2023-02-12T18:19:34.147Z,5.37
2023-02-12T18:22:02.429Z,5.10
2023-02-12T18:24:33.384Z,4.40
2023-02-12T18:27:01.579Z,4.90
2023-02-12T18:29:30.216Z,5.10
2023-02-12T18:32:02.114Z,5.30
2023-02-12T18:34:30.604Z,4.93
2023-02-12T18:37:01.012Z,4.53
2023-02-12T18:39:29.209Z,4.13
2023-02-12T18:41:58.483Z,4.40
2023-02-12T18:44:27.069Z,4.03
2023-02-12T18:46:56.712Z,4.00
2023-02-12T18:49:25.215Z,4.20
2023-02-12T18:51:53.476Z,4.07
2023-02-12T18:54:23.096Z,3.70
2023-02-12T18:56:53.508Z,4.20
2023-02-12T18:59:24.773Z,4.57
2023-02-12T19:01:54.391Z,4.30
2023-02-12T19:04:26.759Z,4.67
2023-02-12T19:06:56.649Z,4.17
2023-02-12T19:09:29.848Z,4.03
2023-02-12T19:12:00.377Z,3.43
2023-02-12T19:14:30.151Z,4.20
2023-02-12T19:17:06.865Z,4.33
2023-02-12T19:19:35.418Z,4.07
2023-02-12T19:22:04.047Z,3.43
2023-02-12T19:24:45.917Z,4.10
2023-02-12T19:27:18.657Z,4.07
2023-02-12T19:29:46.878Z,3.70
2023-02-12T19:32:15.401Z,4.60
2023-02-12T19:34:44.060Z,4.17
2023-02-12T19:37:13.995Z,4.20
2023-02-12T19:39:44.335Z,4.60
2023-02-12T19:42:17.827Z,4.67
2023-02-12T19:44:46.795Z,4.43
2023-02-12T19:47:16.043Z,4.60
2023-02-12T19:49:47.040Z,4.50
2023-02-12T19:52:15.409Z,4.33
2023-02-12T19:54:49.417Z,4.50
2023-02-12T19:57:17.726Z,4.40
2023-02-12T19:59:46.566Z,4.63
2023-02-12T20:02:15.352Z,5.40
2023-02-12T20:04:43.554Z,4.93
2023-02-12T20:07:12.163Z,4.70
2023-02-12T20:09:40.554Z,5.07
2023-02-12T20:12:10.253Z,3.90
2023-02-12T20:14:38.359Z,4.77
2023-02-12T20:17:07.026Z,4.97
2023-02-12T20:19:35.275Z,4.53
2023-02-12T20:22:04.640Z,4.37
2023-02-12T20:24:35.192Z,4.53
2023-02-12T20:27:04.726Z,5.00
2023-02-12T20:29:34.291Z,4.60
2023-02-12T20:32:02.467Z,4.97
2023-02-12T20:34:34.672Z,4.73
2023-02-12T20:37:08.120Z,4.97
2023-02-12T20:39:39.209Z,5.07
2023-02-12T20:42:07.499Z,5.20
2023-02-12T20:44:38.548Z,5.17
2023-02-12T20:47:08.138Z,4.90
2023-02-12T20:49:36.387Z,4.70
2023-02-12T20:52:05.120Z,4.03
2023-02-12T20:54:33.197Z,4.60
2023-02-12T20:57:06.550Z,4.47
2023-02-12T20:59:36.136Z,4.50
2023-02-12T21:02:04.342Z,4.17
2023-02-12T21:04:32.589Z,3.97
2023-02-12T21:07:01.183Z,4.30
2023-02-12T21:09:29.403Z,4.30
2023-02-12T21:11:59.431Z,4.47
2023-02-12T21:14:27.803Z,4.60
2023-02-12T21:16:57.933Z,4.20
2023-02-12T21:19:26.751Z,4.37
2023-02-12T21:21:55.666Z,4.13
2023-02-12T21:24:26.058Z,4.50
2023-02-12T21:26:55.553Z,4.40
2023-02-12T21:29:26.076Z,4.27
2023-02-12T21:31:55.260Z,4.80
2023-02-12T21:34:25.290Z,4.50
2023-02-12T21:36:55.301Z,4.23
2023-02-12T21:39:29.156Z,4.17
2023-02-12T21:42:00.331Z,4.50
2023-02-12T21:44:28.725Z,4.50
2023-02-12T21:46:57.789Z,4.70
2023-02-12T21:49:28.646Z,5.23
2023-02-12T21:51:59.080Z,4.97
2023-02-12T21:54:29.009Z,4.53
2023-02-12T21:56:58.151Z,4.70
2023-02-12T21:59:26.854Z,4.63
2023-02-12T22:01:58.466Z,4.50
2023-02-12T22:04:29.065Z,4.57
2023-02-12T22:06:58.400Z,4.70
2023-02-12T22:09:26.506Z,5.07
2023-02-12T22:11:54.806Z,4.27
2023-02-12T22:14:24.267Z,4.10
2023-02-12T22:16:53.192Z,4.77
2023-02-12T22:19:21.621Z,4.40
2023-02-12T22:21:52.751Z,4.80
2023-02-12T22:24:22.228Z,4.20
2023-02-12T22:26:50.601Z,4.53
2023-02-12T22:29:18.947Z,4.20
2023-02-12T22:31:48.217Z,4.27
2023-02-12T22:34:19.165Z,5.00
2023-02-12T22:36:49.637Z,4.83
2023-02-12T22:39:19.388Z,4.63
2023-02-12T22:41:47.677Z,5.17
2023-02-12T22:44:18.390Z,5.30
2023-02-12T22:46:48.599Z,4.60
2023-02-12T22:49:17.660Z,4.77
2023-02-12T22:51:45.828Z,4.43
2023-02-12T22:54:16.099Z,4.80
2023-02-12T22:56:46.632Z,5.30
2023-02-12T22:59:15.013Z,4.73
2023-02-12T23:01:44.171Z,5.13
2023-02-12T23:04:16.354Z,4.93
2023-02-12T23:06:45.016Z,4.93
2023-02-12T23:09:17.880Z,5.17
2023-02-12T23:11:48.655Z,4.90
2023-02-12T23:14:16.955Z,4.80
2023-02-12T23:16:45.600Z,5.33
2023-02-12T23:19:14.097Z,5.30
2023-02-12T23:21:42.800Z,5.30
2023-02-12T23:24:14.353Z,5.40
2023-02-12T23:26:42.525Z,5.07
2023-02-12T23:29:12.203Z,5.27
2023-02-12T23:31:40.672Z,5.27
2023-02-12T23:34:09.161Z,5.37
2023-02-12T23:36:37.207Z,5.30
2023-02-12T23:39:06.341Z,5.17
2023-02-12T23:41:34.790Z,4.97
2023-02-12T23:44:02.939Z,4.70
2023-02-12T23:46:32.572Z,5.23
2023-02-12T23:49:00.705Z,5.07
2023-02-12T23:51:28.950Z,5.20
2023-02-12T23:53:58.009Z,5.87
2023-02-12T23:56:26.859Z,6.10
2023-02-12T23:58:57.397Z,5.70
